Time;durP1;ratioP1;P1;durP2;ratioP2;P2;SDS_P1;SDS_P2;PMS_P1;PMS_P2;Temp;Humidity;BMP_temperature;BMP_pressure;BME280_temperature;BME280_humidity;BME280_pressure;Samples;Min_cycle;Max_cycle;Signal;HPM_P1;HPM_P2
2023/09/21 00:02:13;;;;;;;5.78;1.92;;;18.50;99.90;;;;;;5001083;28;20063;-74
2023/09/21 00:04:59;;;;;;;5.30;1.70;;;18.50;99.90;;;;;;4999929;28;20045;-74
2023/09/21 00:07:46;;;;;;;3.08;1.73;;;18.50;99.90;;;;;;5025684;28;20343;-74
2023/09/21 00:10:33;;;;;;;8.48;1.75;;;18.50;99.90;;;;;;5026393;28;20184;-74
2023/09/21 00:13:26;;;;;;;6.05;1.52;;;18.50;99.90;;;;;;5000634;28;20342;-74
2023/09/21 00:16:12;;;;;;;2.58;1.55;;;18.50;99.90;;;;;;5029113;28;20036;-74
2023/09/21 00:18:58;;;;;;;3.85;1.70;;;18.50;99.90;;;;;;5033100;28;20067;-74
2023/09/21 00:21:44;;;;;;;5.32;2.05;;;18.40;99.90;;;;;;5039887;28;20062;-74
2023/09/21 00:24:30;;;;;;;2.83;1.88;;;18.40;99.90;;;;;;5019729;28;20132;-73
2023/09/21 00:27:17;;;;;;;3.95;1.55;;;18.40;99.90;;;;;;5037415;28;20069;-73
2023/09/21 00:30:05;;;;;;;4.18;1.73;;;18.40;99.90;;;;;;5038920;28;20063;-74
2023/09/21 00:32:51;;;;;;;4.25;1.65;;;18.40;99.90;;;;;;5050741;28;20037;-75
2023/09/21 00:35:39;;;;;;;4.40;1.50;;;18.30;99.90;;;;;;5027963;28;20048;-74
2023/09/21 00:38:26;;;;;;;5.65;1.77;;;18.30;99.90;;;;;;5007849;28;20045;-74
2023/09/21 00:41:11;;;;;;;3.55;1.90;;;18.30;99.90;;;;;;5014561;28;20470;-74
2023/09/21 00:43:58;;;;;;;4.35;1.77;;;18.30;99.90;;;;;;5037417;28;20037;-74
2023/09/21 00:46:44;;;;;;;6.13;1.70;;;18.30;99.90;;;;;;5008707;28;20091;-74
2023/09/21 00:49:31;;;;;;;3.60;1.60;;;18.30;99.90;;;;;;5037054;28;20044;-74
2023/09/21 00:52:16;;;;;;;6.47;1.80;;;18.30;99.90;;;;;;5014712;28;20057;-74
2023/09/21 00:55:05;;;;;;;6.57;1.98;;;18.20;99.90;;;;;;5014445;28;20041;-74
2023/09/21 00:57:55;;;;;;;5.80;1.65;;;18.10;99.90;;;;;;5013333;28;20050;-74
2023/09/21 01:00:41;;;;;;;3.30;1.70;;;18.20;99.90;;;;;;5001074;28;20038;-74
2023/09/21 01:03:28;;;;;;;3.75;1.75;;;18.10;99.90;;;;;;4985319;28;20045;-74
2023/09/21 01:06:18;;;;;;;4.57;1.58;;;18.10;99.90;;;;;;4990996;28;20045;-74
2023/09/21 01:09:06;;;;;;;4.60;2.00;;;18.10;99.90;;;;;;5041968;28;20770;-74
2023/09/21 01:11:53;;;;;;;3.42;1.67;;;18.10;99.90;;;;;;5009282;28;20506;-74
2023/09/21 01:14:39;;;;;;;4.40;1.90;;;18.10;99.90;;;;;;5042578;28;20077;-74
2023/09/21 01:17:25;;;;;;;3.47;1.52;;;18.10;99.90;;;;;;5016723;28;20053;-74
2023/09/21 01:20:16;;;;;;;9.38;2.22;;;18.10;99.90;;;;;;5006432;28;20408;-74
2023/09/21 01:23:11;;;;;;;3.50;1.65;;;18.10;99.90;;;;;;5037128;28;20064;-74
2023/09/21 01:26:00;;;;;;;3.80;1.70;;;18.10;99.90;;;;;;5012673;28;20053;-74
2023/09/21 01:28:49;;;;;;;3.67;1.92;;;18.00;99.90;;;;;;5011847;28;20037;-74
2023/09/21 01:31:35;;;;;;;5.85;1.70;;;18.00;99.90;;;;;;5018000;28;20124;-74
2023/09/21 01:34:21;;;;;;;5.78;2.10;;;18.00;99.90;;;;;;5013579;28;20040;-74
2023/09/21 01:37:08;;;;;;;6.00;1.95;;;18.00;99.90;;;;;;5035250;28;20669;-74
2023/09/21 01:39:55;;;;;;;3.92;1.55;;;18.00;99.90;;;;;;5008698;28;20040;-74
2023/09/21 01:42:41;;;;;;;3.00;1.70;;;17.90;99.90;;;;;;5011142;28;20103;-74
2023/09/21 01:45:27;;;;;;;5.25;1.90;;;17.90;99.90;;;;;;5030987;28;20099;-74
2023/09/21 01:48:14;;;;;;;4.40;1.77;;;17.90;99.90;;;;;;5021395;28;20045;-74
2023/09/21 01:51:01;;;;;;;4.25;1.85;;;17.90;99.90;;;;;;5015700;28;20036;-74
2023/09/21 01:53:47;;;;;;;3.75;1.80;;;17.90;99.90;;;;;;5044300;28;20046;-73
2023/09/21 01:56:34;;;;;;;4.13;2.10;;;17.80;99.90;;;;;;5021003;28;20042;-74
2023/09/21 01:59:20;;;;;;;4.82;1.98;;;17.80;99.90;;;;;;5009155;28;20522;-74
2023/09/21 02:02:06;;;;;;;3.42;1.55;;;17.80;99.90;;;;;;5011109;28;20045;-74
2023/09/21 02:04:52;;;;;;;3.17;1.70;;;17.80;99.90;;;;;;5044276;28;20513;-74
2023/09/21 02:07:39;;;;;;;3.55;1.67;;;17.70;99.90;;;;;;5051510;28;20107;-74
2023/09/21 02:10:25;;;;;;;5.38;1.88;;;17.70;99.90;;;;;;5042355;28;20041;-74
2023/09/21 02:13:11;;;;;;;4.30;1.83;;;17.70;99.90;;;;;;5024579;28;20051;-74
2023/09/21 02:15:57;;;;;;;3.80;1.67;;;17.70;99.90;;;;;;5040377;28;20501;-74
2023/09/21 02:18:44;;;;;;;6.30;2.20;;;17.70;99.90;;;;;;5004846;28;20108;-73
2023/09/21 02:21:34;;;;;;;6.57;1.90;;;17.70;99.90;;;;;;5046274;28;20037;-74
2023/09/21 02:24:20;;;;;;;3.92;1.95;;;17.60;99.90;;;;;;5034897;28;20351;-74
2023/09/21 02:27:06;;;;;;;4.35;1.63;;;17.60;99.90;;;;;;5034101;28;20119;-74
2023/09/21 02:29:53;;;;;;;4.22;2.00;;;17.60;99.90;;;;;;5026343;28;20060;-74
2023/09/21 02:32:48;;;;;;;4.25;2.10;;;17.50;99.90;;;;;;5036687;28;20106;-74
2023/09/21 02:35:34;;;;;;;3.35;1.90;;;17.50;99.90;;;;;;5052197;28;20040;-74
2023/09/21 02:38:20;;;;;;;5.25;2.13;;;17.50;99.90;;;;;;5033558;28;20045;-74
2023/09/21 02:41:08;;;;;;;6.70;2.15;;;17.40;99.90;;;;;;5032706;28;20033;-74
2023/09/21 02:43:54;;;;;;;3.30;1.80;;;17.40;99.90;;;;;;5018804;28;20047;-74
2023/09/21 02:46:40;;;;;;;6.00;2.05;;;17.40;99.90;;;;;;5021855;28;20087;-74
2023/09/21 02:49:25;;;;;;;3.95;2.33;;;17.40;99.90;;;;;;5029861;28;20461;-73
2023/09/21 02:52:13;;;;;;;3.00;1.77;;;17.30;99.90;;;;;;5030585;28;20053;-74
2023/09/21 02:54:59;;;;;;;6.57;2.40;;;17.30;99.90;;;;;;5009126;28;20052;-74
2023/09/21 02:57:49;;;;;;;3.13;1.90;;;17.30;99.90;;;;;;5014177;28;20281;-73
2023/09/21 03:00:39;;;;;;;3.22;1.92;;;17.30;99.90;;;;;;5013367;28;20485;-74
2023/09/21 03:03:27;;;;;;;4.70;1.83;;;17.30;99.90;;;;;;5025031;28;20044;-73
2023/09/21 03:06:17;;;;;;;;;;;17.20;99.90;;;;;;5024257;28;20080;-73
2023/09/21 03:09:05;;;;;;;7.05;2.22;;;17.20;99.90;;;;;;5022445;28;19920;-74
2023/09/21 03:11:51;;;;;;;4.68;2.67;;;17.30;99.90;;;;;;5035234;28;20056;-74
2023/09/21 03:14:37;;;;;;;3.90;2.25;;;17.20;99.90;;;;;;5005386;28;20515;-73
2023/09/21 03:17:23;;;;;;;5.70;2.10;;;17.30;99.90;;;;;;5018599;28;20505;-73
2023/09/21 03:20:11;;;;;;;5.13;2.03;;;17.20;99.90;;;;;;4961640;28;20067;-74
2023/09/21 03:22:57;;;;;;;;;;;17.20;99.90;;;;;;4986182;28;20411;-73
2023/09/21 03:25:44;;;;;;;3.83;2.38;;;17.20;99.90;;;;;;5008491;28;19913;-74
2023/09/21 03:28:31;;;;;;;3.55;2.10;;;17.20;99.90;;;;;;4981734;28;20447;-73
2023/09/21 03:31:18;;;;;;;5.40;2.00;;;17.20;99.90;;;;;;4961008;28;20061;-74
2023/09/21 03:34:05;;;;;;;4.55;2.05;;;17.20;99.90;;;;;;4997356;28;20627;-73
2023/09/21 03:36:51;;;;;;;5.53;2.50;;;17.20;99.90;;;;;;4986531;28;20050;-73
2023/09/21 03:39:37;;;;;;;5.18;2.25;;;17.20;99.90;;;;;;4992952;28;20045;-73
2023/09/21 03:42:23;;;;;;;6.00;2.28;;;17.10;99.90;;;;;;4996150;28;20041;-73
2023/09/21 03:45:14;;;;;;;3.17;1.70;;;17.10;99.90;;;;;;4991239;28;20070;-73
2023/09/21 03:48:04;;;;;;;5.03;2.10;;;17.10;99.90;;;;;;4984313;28;20049;-74
2023/09/21 03:50:52;;;;;;;4.18;2.30;;;17.10;99.90;;;;;;4996246;28;20045;-73
2023/09/21 03:53:39;;;;;;;5.45;1.83;;;17.10;99.90;;;;;;4984809;28;20042;-74
2023/09/21 03:56:26;;;;;;;3.80;2.10;;;17.10;99.90;;;;;;4987280;28;20348;-74
2023/09/21 03:59:12;;;;;;;4.70;2.28;;;17.10;99.90;;;;;;4989836;28;20080;-74
2023/09/21 04:01:58;;;;;;;4.50;2.00;;;17.10;99.90;;;;;;4992089;28;20034;-74
2023/09/21 04:04:44;;;;;;;5.35;2.40;;;17.10;99.90;;;;;;4994430;28;20053;-73
2023/09/21 04:07:30;;;;;;;8.98;2.40;;;17.00;99.90;;;;;;4986601;28;20467;-73
2023/09/21 04:10:16;;;;;;;5.28;2.30;;;17.00;99.90;;;;;;5000902;28;20121;-73
2023/09/21 04:13:02;;;;;;;4.95;1.80;;;17.00;99.90;;;;;;5007118;28;20038;-73
2023/09/21 04:15:48;;;;;;;4.93;2.45;;;17.00;99.90;;;;;;4983762;28;20038;-74
2023/09/21 04:18:34;;;;;;;4.03;1.85;;;17.00;99.90;;;;;;5020673;28;20052;-74
2023/09/21 04:21:23;;;;;;;6.05;2.28;;;17.00;99.90;;;;;;5051520;28;20104;-73
2023/09/21 04:24:09;;;;;;;4.60;2.28;;;17.00;99.90;;;;;;5028724;28;20041;-74
2023/09/21 04:26:56;;;;;;;2.95;1.90;;;17.00;99.90;;;;;;4998129;28;20049;-74
2023/09/21 04:29:41;;;;;;;4.50;2.30;;;17.00;99.90;;;;;;5034264;28;20064;-73
2023/09/21 04:32:28;;;;;;;6.47;2.20;;;17.00;99.90;;;;;;5018488;28;20041;-74
2023/09/21 04:35:15;;;;;;;4.95;2.03;;;17.00;99.90;;;;;;5040071;28;20485;-74
2023/09/21 04:38:03;;;;;;;5.43;2.33;;;17.00;99.90;;;;;;5036827;28;20374;-74
2023/09/21 04:40:51;;;;;;;;;;;17.00;99.90;;;;;;5013062;28;20034;-74
2023/09/21 04:43:39;;;;;;;6.05;2.75;;;17.00;99.90;;;;;;5026713;28;20334;-74
2023/09/21 04:46:25;;;;;;;4.70;2.10;;;16.90;99.90;;;;;;5050944;28;20404;-74
2023/09/21 04:49:11;;;;;;;4.03;1.83;;;16.90;99.90;;;;;;5041766;28;20037;-73
2023/09/21 04:51:57;;;;;;;4.03;1.98;;;16.90;99.90;;;;;;5000742;28;20056;-74
2023/09/21 04:54:48;;;;;;;5.05;2.10;;;16.90;99.90;;;;;;5023875;28;20086;-74
2023/09/21 04:57:34;;;;;;;5.05;2.42;;;16.90;99.90;;;;;;5051666;28;20051;-74
2023/09/21 05:00:20;;;;;;;3.85;2.38;;;16.90;99.90;;;;;;5004404;28;20750;-73
2023/09/21 05:03:06;;;;;;;5.47;2.25;;;16.90;99.90;;;;;;5005783;28;20144;-74
2023/09/21 05:05:54;;;;;;;3.60;2.00;;;16.90;99.90;;;;;;5014719;28;20038;-74
2023/09/21 05:08:40;;;;;;;4.35;2.28;;;16.90;99.90;;;;;;5025100;28;20072;-74
2023/09/21 05:11:27;;;;;;;5.93;2.05;;;16.90;99.90;;;;;;4986011;28;20038;-74
2023/09/21 05:14:13;;;;;;;4.30;2.17;;;17.00;99.90;;;;;;5021164;28;20935;-74
2023/09/21 05:16:59;;;;;;;4.55;2.22;;;16.90;99.90;;;;;;5023343;28;20053;-73
2023/09/21 05:19:45;;;;;;;3.92;2.03;;;17.00;99.90;;;;;;5007910;28;20049;-74
2023/09/21 05:22:32;;;;;;;6.28;2.28;;;17.00;99.90;;;;;;5010554;28;20048;-74
2023/09/21 05:25:19;;;;;;;5.10;2.10;;;17.00;99.90;;;;;;5011035;28;20049;-74
2023/09/21 05:28:05;;;;;;;7.97;2.28;;;17.00;99.90;;;;;;4989200;28;20482;-73
2023/09/21 05:30:51;;;;;;;4.97;2.33;;;17.00;99.90;;;;;;5012834;28;20042;-74
2023/09/21 05:33:37;;;;;;;4.43;2.20;;;17.00;99.90;;;;;;4993096;28;20054;-74
2023/09/21 05:36:23;;;;;;;7.88;2.30;;;17.00;99.90;;;;;;4999260;28;20048;-74
2023/09/21 05:39:08;;;;;;;6.10;2.10;;;17.10;99.90;;;;;;5018570;28;20065;-73
2023/09/21 05:41:54;;;;;;;4.05;2.45;;;17.10;99.90;;;;;;5025163;28;20041;-74
2023/09/21 05:44:41;;;;;;;5.38;2.67;;;17.10;99.90;;;;;;5052981;28;20036;-74
2023/09/21 05:47:27;;;;;;;4.97;1.88;;;17.10;99.90;;;;;;5009571;28;20045;-74
2023/09/21 05:50:13;;;;;;;3.60;1.85;;;17.10;99.90;;;;;;5034105;28;20107;-74
2023/09/21 05:53:00;;;;;;;4.72;2.08;;;17.20;99.90;;;;;;5004030;28;20049;-74
2023/09/21 05:55:46;;;;;;;4.85;2.05;;;17.20;99.90;;;;;;5022316;28;20042;-74
2023/09/21 05:58:32;;;;;;;4.47;2.63;;;17.20;99.90;;;;;;4995607;28;20042;-74
2023/09/21 06:01:18;;;;;;;4.88;2.10;;;17.20;99.90;;;;;;5005817;28;20628;-74
2023/09/21 06:04:04;;;;;;;4.35;2.00;;;17.20;99.90;;;;;;5014622;28;20049;-74
2023/09/21 06:06:55;;;;;;;4.43;2.20;;;17.20;99.90;;;;;;5008031;28;20479;-74
2023/09/21 06:09:45;;;;;;;4.53;2.40;;;17.30;99.90;;;;;;5032106;28;20045;-74
2023/09/21 06:12:31;;;;;;;5.72;2.28;;;17.30;99.90;;;;;;5030716;28;20045;-74
2023/09/21 06:15:18;;;;;;;4.38;2.17;;;17.30;99.90;;;;;;5033438;28;20041;-74
2023/09/21 06:18:05;;;;;;;4.70;1.80;;;17.30;99.90;;;;;;5013191;28;20069;-74
2023/09/21 06:20:53;;;;;;;5.28;2.13;;;17.30;99.90;;;;;;5007078;28;20138;-74
2023/09/21 06:23:39;;;;;;;4.68;2.03;;;17.40;99.90;;;;;;5003230;28;20034;-74
2023/09/21 06:26:25;;;;;;;5.13;2.10;;;17.40;99.90;;;;;;5048023;28;20045;-74
2023/09/21 06:29:12;;;;;;;6.20;2.10;;;17.50;99.90;;;;;;5025380;28;20041;-74
2023/09/21 06:32:00;;;;;;;6.93;2.30;;;17.50;99.90;;;;;;5025083;28;20411;-74
2023/09/21 06:34:47;;;;;;;4.50;2.20;;;17.50;99.90;;;;;;5020784;28;20037;-73
2023/09/21 06:37:34;;;;;;;4.32;2.00;;;17.60;99.90;;;;;;5032538;28;20182;-74
2023/09/21 06:40:21;;;;;;;6.65;1.90;;;17.60;99.90;;;;;;5023515;28;20655;-73
2023/09/21 06:43:07;;;;;;;3.00;1.80;;;17.70;99.90;;;;;;5045260;28;20037;-74
2023/09/21 06:45:53;;;;;;;6.82;2.08;;;17.70;99.90;;;;;;5025537;28;20042;-74
2023/09/21 06:48:40;;;;;;;6.88;2.20;;;17.70;99.90;;;;;;4987417;28;20379;-74
2023/09/21 06:51:28;;;;;;;3.85;2.03;;;17.80;99.90;;;;;;5005193;28;20493;-74
2023/09/21 06:54:14;;;;;;;5.10;1.98;;;17.90;99.90;;;;;;5020841;28;20068;-74
2023/09/21 06:57:08;;;;;;;5.80;2.45;;;17.90;99.90;;;;;;5026932;28;20041;-74
2023/09/21 06:59:54;;;;;;;7.47;2.10;;;17.90;99.90;;;;;;5007417;28;20549;-74
2023/09/21 07:02:40;;;;;;;5.53;2.03;;;18.00;99.90;;;;;;5017237;28;20048;-74
2023/09/21 07:05:26;;;;;;;4.43;1.85;;;18.00;99.90;;;;;;5023416;28;20045;-74
2023/09/21 07:08:12;;;;;;;4.60;1.85;;;18.10;99.90;;;;;;5031045;28;20568;-73
2023/09/21 07:10:59;;;;;;;3.85;2.20;;;18.10;99.90;;;;;;4994115;28;20049;-74
2023/09/21 07:13:46;;;;;;;3.95;1.63;;;18.10;99.90;;;;;;4999977;28;20041;-74
2023/09/21 07:16:32;;;;;;;4.72;1.85;;;18.20;99.90;;;;;;5007352;28;20060;-73
2023/09/21 07:19:18;;;;;;;9.38;2.28;;;18.30;99.90;;;;;;5006196;28;20041;-73
2023/09/21 07:22:04;;;;;;;7.80;2.10;;;18.30;99.90;;;;;;4997020;28;20045;-73
2023/09/21 07:24:50;;;;;;;6.43;2.22;;;18.40;99.90;;;;;;5029467;28;20050;-74
2023/09/21 07:27:36;;;;;;;5.13;2.08;;;18.50;99.90;;;;;;5013662;28;20041;-73
2023/09/21 07:30:22;;;;;;;4.28;1.95;;;18.50;99.90;;;;;;5022644;28;20104;-73
2023/09/21 07:33:08;;;;;;;4.32;1.88;;;18.60;99.90;;;;;;4982615;28;20153;-73
2023/09/21 07:35:54;;;;;;;7.10;1.85;;;18.60;99.90;;;;;;5010243;28;20068;-73
2023/09/21 07:38:40;;;;;;;7.13;2.00;;;18.70;99.90;;;;;;5003955;28;20076;-74
2023/09/21 07:41:26;;;;;;;4.40;2.17;;;18.80;99.90;;;;;;5006559;28;20471;-73
2023/09/21 07:44:14;;;;;;;4.60;2.20;;;18.90;99.90;;;;;;5037143;28;20046;-73
2023/09/21 07:47:00;;;;;;;6.17;1.73;;;19.00;99.90;;;;;;5038619;28;20099;-74
2023/09/21 07:49:45;;;;;;;5.75;1.80;;;19.00;99.90;;;;;;5041051;28;20317;-73
2023/09/21 07:52:35;;;;;;;7.65;1.80;;;19.20;99.90;;;;;;5021561;28;20676;-74
2023/09/21 07:55:22;;;;;;;5.10;2.10;;;19.30;99.90;;;;;;4993358;28;20037;-73
2023/09/21 07:58:10;;;;;;;5.50;1.95;;;19.30;99.90;;;;;;5033407;28;20075;-74
2023/09/21 08:00:56;;;;;;;4.68;1.75;;;19.40;99.90;;;;;;5017885;28;20033;-73
2023/09/21 08:03:43;;;;;;;3.25;1.40;;;19.50;99.90;;;;;;5036235;28;20470;-74
2023/09/21 08:06:29;;;;;;;4.30;1.77;;;19.50;99.90;;;;;;5021790;28;20041;-74
2023/09/21 08:09:17;;;;;;;7.95;2.33;;;19.70;99.90;;;;;;5011334;28;20124;-73
2023/09/21 08:12:03;;;;;;;5.05;1.88;;;19.70;99.90;;;;;;5036946;28;20752;-73
2023/09/21 08:14:49;;;;;;;5.55;2.13;;;19.90;99.90;;;;;;4998699;28;20038;-74
2023/09/21 08:17:36;;;;;;;7.05;2.17;;;20.00;99.90;;;;;;5016447;28;20045;-73
2023/09/21 08:20:22;;;;;;;7.00;2.00;;;20.00;99.90;;;;;;5015754;28;20041;-74
2023/09/21 08:23:08;;;;;;;3.22;1.63;;;20.10;99.90;;;;;;4996583;28;20095;-73
2023/09/21 08:25:54;;;;;;;5.65;1.80;;;20.20;99.90;;;;;;5036696;28;20033;-75
2023/09/21 08:28:41;;;;;;;3.70;1.90;;;20.20;99.70;;;;;;5029503;28;20076;-75
2023/09/21 08:31:27;;;;;;;4.20;1.60;;;20.30;99.90;;;;;;5026705;28;20654;-75
2023/09/21 08:34:15;;;;;;;5.35;1.70;;;20.40;99.90;;;;;;5031769;28;20037;-74
2023/09/21 08:37:01;;;;;;;4.80;1.70;;;20.50;99.90;;;;;;5001267;28;20052;-74
2023/09/21 08:39:47;;;;;;;8.57;1.70;;;20.60;99.50;;;;;;5029092;28;20358;-72
2023/09/21 08:42:35;;;;;;;8.52;2.00;;;20.60;99.90;;;;;;5019747;28;20075;-75
2023/09/21 08:45:23;;;;;;;5.75;1.70;;;20.70;99.80;;;;;;5035790;28;20599;-75
2023/09/21 08:48:09;;;;;;;4.30;1.60;;;20.70;99.60;;;;;;5020743;28;20064;-75
2023/09/21 08:50:55;;;;;;;7.65;1.98;;;20.80;99.30;;;;;;5028923;28;20041;-75
2023/09/21 08:53:41;;;;;;;3.67;1.60;;;20.90;99.40;;;;;;5051479;28;20108;-75
2023/09/21 08:56:27;;;;;;;4.30;1.77;;;20.90;98.70;;;;;;5009895;28;20067;-75
2023/09/21 08:59:13;;;;;;;8.82;2.10;;;20.90;98.60;;;;;;5006331;28;20034;-74
2023/09/21 09:01:59;;;;;;;3.33;1.58;;;21.00;98.80;;;;;;5030117;28;20044;-75
2023/09/21 09:04:45;;;;;;;5.60;1.73;;;21.10;99.00;;;;;;5016797;28;20040;-75
2023/09/21 09:07:37;;;;;;;6.22;1.60;;;21.10;99.00;;;;;;5026290;28;20412;-72
2023/09/21 09:10:25;;;;;;;3.55;1.98;;;21.10;98.90;;;;;;4973170;28;20050;-75
2023/09/21 09:13:10;;;;;;;;;;;21.10;99.20;;;;;;5043038;28;20040;-75
2023/09/21 09:15:59;;;;;;;4.45;2.20;;;21.10;99.40;;;;;;5005663;28;19913;-75
2023/09/21 09:18:45;;;;;;;3.30;1.80;;;21.20;99.30;;;;;;5026818;28;20045;-75
2023/09/21 09:21:31;;;;;;;5.47;2.55;;;21.20;99.20;;;;;;5047668;28;20037;-75
2023/09/21 09:24:19;;;;;;;6.90;1.80;;;21.20;99.50;;;;;;5041019;28;20045;-72
2023/09/21 09:27:05;;;;;;;7.82;2.67;;;21.20;99.50;;;;;;5013602;28;20037;-72
2023/09/21 09:29:52;;;;;;;9.20;2.15;;;21.20;99.40;;;;;;5020166;28;20041;-75
2023/09/21 09:32:41;;;;;;;5.70;1.70;;;21.30;99.40;;;;;;5014683;28;20041;-75
2023/09/21 09:35:27;;;;;;;6.22;1.50;;;21.30;99.50;;;;;;5015237;28;20049;-75
2023/09/21 09:38:13;;;;;;;3.53;1.73;;;21.40;99.70;;;;;;5002962;28;20378;-75
2023/09/21 09:41:11;;;;;;;3.30;2.03;;;21.50;99.30;;;;;;5025611;28;20099;-75
2023/09/21 09:43:58;;;;;;;6.75;1.60;;;21.50;99.30;;;;;;5001673;28;20120;-75
2023/09/21 09:46:44;;;;;;;6.75;1.92;;;21.60;99.10;;;;;;5035099;28;20045;-75
2023/09/21 09:49:32;;;;;;;3.22;1.70;;;21.80;99.20;;;;;;4987051;28;20143;-75
2023/09/21 09:52:18;;;;;;;5.80;1.80;;;21.90;99.10;;;;;;5012308;28;20504;-75
2023/09/21 09:55:05;;;;;;;5.57;1.90;;;22.00;98.90;;;;;;4982611;28;20046;-75
2023/09/21 09:57:54;;;;;;;4.40;2.00;;;22.10;99.00;;;;;;5004682;28;20037;-72
2023/09/21 10:00:41;;;;;;;6.22;2.10;;;22.30;98.90;;;;;;4982995;28;20041;-72
2023/09/21 10:03:26;;;;;;;6.50;1.80;;;22.40;98.30;;;;;;5014884;28;20033;-73
2023/09/21 10:06:14;;;;;;;6.07;2.33;;;22.40;97.40;;;;;;5015773;28;20091;-72
2023/09/21 10:09:02;;;;;;;5.45;2.03;;;22.50;97.70;;;;;;5032888;28;20041;-73
2023/09/21 10:11:48;;;;;;;7.57;2.50;;;22.40;97.80;;;;;;5013993;28;20046;-73
2023/09/21 10:14:36;;;;;;;6.53;1.80;;;22.50;97.70;;;;;;5000256;28;20421;-72
2023/09/21 10:17:27;;;;;;;5.28;2.20;;;22.40;97.50;;;;;;4973888;28;20037;-72
2023/09/21 10:20:25;;;;;;;5.40;1.70;;;22.40;97.70;;;;;;4989272;28;20049;-72
2023/09/21 10:23:12;;;;;;;7.72;2.17;;;22.40;97.80;;;;;;4997017;28;20041;-72
2023/09/21 10:25:58;;;;;;;4.20;1.90;;;22.40;98.20;;;;;;5025657;28;20049;-72
2023/09/21 10:28:48;;;;;;;4.00;1.85;;;22.30;98.30;;;;;;5021082;28;20048;-72
2023/09/21 10:31:43;;;;;;;3.95;2.15;;;22.30;98.40;;;;;;5041995;28;20033;-72
2023/09/21 10:34:29;;;;;;;7.93;1.67;;;22.30;98.50;;;;;;5007248;28;20047;-72
2023/09/21 10:37:17;;;;;;;4.38;1.60;;;22.30;98.80;;;;;;5032021;28;20124;-72
2023/09/21 10:40:08;;;;;;;9.20;2.05;;;22.30;98.90;;;;;;5053605;28;20769;-72
2023/09/21 10:42:54;;;;;;;6.82;1.70;;;22.30;99.00;;;;;;5024391;28;20635;-74
2023/09/21 10:45:55;;;;;;;5.35;1.85;;;22.40;99.00;;;;;;5027128;28;20047;-72
2023/09/21 10:48:45;;;;;;;6.45;1.92;;;22.40;98.90;;;;;;4991587;28;20064;-73
2023/09/21 10:51:39;;;;;;;4.60;1.73;;;22.40;98.80;;;;;;5017985;28;20478;-74
2023/09/21 10:54:25;;;;;;;5.88;1.60;;;22.40;98.80;;;;;;5004185;28;20115;-74
2023/09/21 10:57:13;;;;;;;5.72;1.70;;;22.50;98.80;;;;;;5004743;28;20041;-74
2023/09/21 11:00:07;;;;;;;;;;;22.50;98.80;;;;;;5033590;28;20037;-74
2023/09/21 11:02:54;;;;;;;4.45;1.88;;;22.50;98.70;;;;;;5005779;28;20543;-73
2023/09/21 11:05:40;;;;;;;5.90;1.90;;;22.50;98.80;;;;;;5019634;28;20045;-74
2023/09/21 11:08:26;;;;;;;4.68;1.95;;;22.50;98.80;;;;;;5018638;28;20045;-74
2023/09/21 11:11:13;;;;;;;3.35;1.50;;;22.40;98.60;;;;;;5044571;28;20536;-74
2023/09/21 11:13:59;;;;;;;7.80;1.80;;;22.50;98.60;;;;;;5049324;28;20057;-74
2023/09/21 11:16:45;;;;;;;4.10;1.80;;;22.50;98.60;;;;;;4995350;28;20115;-74
2023/09/21 11:19:31;;;;;;;4.25;1.70;;;22.50;98.60;;;;;;5032240;28;20045;-74
2023/09/21 11:22:17;;;;;;;3.97;1.55;;;22.40;98.60;;;;;;5029774;28;20041;-74
2023/09/21 11:25:06;;;;;;;3.78;1.42;;;22.50;98.70;;;;;;5046937;28;20347;-74
2023/09/21 11:27:52;;;;;;;7.93;1.90;;;22.40;98.90;;;;;;5027529;28;20067;-74
2023/09/21 11:30:38;;;;;;;5.60;2.10;;;22.50;98.90;;;;;;5030441;28;20080;-74
2023/09/21 11:33:25;;;;;;;7.50;1.50;;;22.50;98.90;;;;;;5002276;28;20132;-74
2023/09/21 11:36:11;;;;;;;5.82;1.50;;;22.50;99.20;;;;;;5039110;28;20147;-73
2023/09/21 11:38:58;;;;;;;7.65;1.23;;;22.50;98.80;;;;;;5021669;28;20041;-74
2023/09/21 11:41:44;;;;;;;2.60;1.27;;;22.50;97.90;;;;;;4998568;28;20033;-73
2023/09/21 11:44:30;;;;;;;2.63;1.40;;;22.50;97.70;;;;;;5012762;28;20112;-73
2023/09/21 11:47:16;;;;;;;3.78;0.90;;;22.40;97.80;;;;;;5001475;28;20044;-73
2023/09/21 11:50:03;;;;;;;2.78;1.20;;;22.40;97.80;;;;;;5005309;28;20052;-74
2023/09/21 11:52:56;;;;;;;3.22;1.10;;;22.40;97.60;;;;;;5016767;28;20048;-74
2023/09/21 11:55:43;;;;;;;3.03;1.20;;;22.40;97.60;;;;;;5031979;28;20049;-74
2023/09/21 11:58:32;;;;;;;2.42;1.30;;;22.40;97.60;;;;;;5021189;28;20049;-74
2023/09/21 12:01:22;;;;;;;4.00;1.20;;;22.40;97.60;;;;;;5007554;28;20045;-72
2023/09/21 12:04:08;;;;;;;3.63;1.30;;;22.40;97.50;;;;;;5008241;28;20037;-72
2023/09/21 12:06:55;;;;;;;2.17;1.13;;;22.30;97.60;;;;;;5021495;28;20041;-72
2023/09/21 12:09:41;;;;;;;4.07;1.15;;;22.30;97.60;;;;;;5022935;28;20038;-72
2023/09/21 12:12:27;;;;;;;2.20;1.05;;;22.30;98.00;;;;;;4997701;28;20626;-72
2023/09/21 12:15:13;;;;;;;5.05;1.30;;;22.30;98.40;;;;;;5010415;28;20041;-72
2023/09/21 12:18:01;;;;;;;5.65;1.10;;;22.30;98.80;;;;;;5022438;28;20045;-72
2023/09/21 12:20:49;;;;;;;6.88;1.52;;;22.30;99.80;;;;;;5020346;28;20369;-72
2023/09/21 12:23:35;;;;;;;4.57;1.50;;;22.20;99.90;;;;;;5039836;28;20162;-72
2023/09/21 12:26:21;;;;;;;3.47;1.27;;;22.20;99.80;;;;;;5029265;28;20041;-72
2023/09/21 12:29:08;;;;;;;6.45;2.08;;;22.20;99.90;;;;;;5038436;28;20377;-72
2023/09/21 12:31:56;;;;;;;3.95;1.70;;;22.20;99.90;;;;;;5017824;28;20041;-72
2023/09/21 12:34:42;;;;;;;6.65;1.63;;;22.10;99.90;;;;;;4995482;28;20099;-72
2023/09/21 12:37:28;;;;;;;2.78;1.40;;;22.10;99.90;;;;;;5015299;28;20045;-72
2023/09/21 12:40:15;;;;;;;3.40;1.67;;;22.10;99.90;;;;;;4999933;28;20044;-72
2023/09/21 12:43:02;;;;;;;2.92;1.60;;;22.00;99.90;;;;;;5007469;28;20421;-72
2023/09/21 12:45:49;;;;;;;6.10;2.00;;;22.00;99.90;;;;;;5009097;28;20038;-72
2023/09/21 12:48:38;;;;;;;6.05;1.70;;;21.90;99.90;;;;;;5007124;28;20067;-72
2023/09/21 12:51:27;;;;;;;5.40;1.63;;;21.90;99.90;;;;;;5016010;28;20539;-72
2023/09/21 12:54:14;;;;;;;7.38;1.92;;;21.80;99.90;;;;;;4995779;28;20049;-72
2023/09/21 12:57:02;;;;;;;6.28;2.13;;;21.80;99.90;;;;;;5027196;28;20346;-72
2023/09/21 12:59:48;;;;;;;5.80;2.20;;;21.70;99.90;;;;;;5031791;28;20631;-72
2023/09/21 13:02:34;;;;;;;6.05;2.03;;;21.70;99.90;;;;;;4991957;28;20041;-74
2023/09/21 13:05:21;;;;;;;5.82;1.85;;;21.60;99.90;;;;;;5016767;28;20045;-72
2023/09/21 13:08:07;;;;;;;3.83;1.67;;;21.60;99.90;;;;;;5008088;28;20048;-72
2023/09/21 13:10:54;;;;;;;4.53;1.90;;;21.60;99.90;;;;;;5038348;28;20037;-72
2023/09/21 13:13:40;;;;;;;6.50;1.98;;;21.50;99.90;;;;;;5017229;28;20080;-72
2023/09/21 13:16:26;;;;;;;7.18;2.25;;;21.50;99.90;;;;;;5041726;28;20042;-72
2023/09/21 13:19:14;;;;;;;4.57;1.92;;;21.40;99.90;;;;;;5004585;28;20045;-72
2023/09/21 13:22:00;;;;;;;5.47;2.53;;;21.40;99.90;;;;;;5010880;28;20081;-72
2023/09/21 13:24:46;;;;;;;5.82;1.75;;;21.30;99.90;;;;;;5009517;28;20543;-72
2023/09/21 13:27:33;;;;;;;5.85;1.95;;;21.30;99.90;;;;;;5031688;28;20099;-72
2023/09/21 13:30:19;;;;;;;7.10;1.90;;;21.30;99.90;;;;;;5029301;28;20134;-72
2023/09/21 13:33:06;;;;;;;7.45;2.10;;;21.30;99.90;;;;;;5036558;28;20041;-72
2023/09/21 13:35:52;;;;;;;3.53;1.83;;;21.30;99.90;;;;;;5037149;28;20037;-73
2023/09/21 13:38:38;;;;;;;4.75;2.00;;;21.20;99.90;;;;;;5028230;28;20053;-73
2023/09/21 13:41:24;;;;;;;5.50;1.95;;;21.20;99.90;;;;;;5006464;28;20037;-72
2023/09/21 13:44:10;;;;;;;4.30;1.75;;;21.10;99.90;;;;;;5032683;28;20079;-72
2023/09/21 13:46:57;;;;;;;5.88;1.85;;;21.10;99.90;;;;;;4997264;28;20509;-72
2023/09/21 13:49:44;;;;;;;6.05;2.15;;;21.10;99.90;;;;;;5016280;28;20450;-74
2023/09/21 13:52:31;;;;;;;5.72;1.77;;;21.00;99.90;;;;;;5010361;28;20125;-72
2023/09/21 13:55:17;;;;;;;5.97;2.00;;;21.00;99.90;;;;;;5005602;28;20135;-72
2023/09/21 13:58:03;;;;;;;7.38;2.13;;;21.00;99.90;;;;;;5010802;28;20046;-72
2023/09/21 14:00:49;;;;;;;6.35;2.40;;;21.00;99.90;;;;;;5032912;28;20556;-74
2023/09/21 14:03:38;;;;;;;5.75;2.65;;;21.00;99.90;;;;;;5008794;28;20373;-74
2023/09/21 14:06:26;;;;;;;3.42;1.90;;;20.90;99.90;;;;;;5039294;28;20038;-73
2023/09/21 14:09:14;;;;;;;5.75;1.75;;;21.00;99.90;;;;;;5001160;28;20467;-72
2023/09/21 14:12:00;;;;;;;7.50;1.90;;;20.90;99.90;;;;;;5012328;28;20073;-75
2023/09/21 14:14:47;;;;;;;7.22;2.50;;;21.00;99.90;;;;;;5000009;28;20045;-74
2023/09/21 14:17:35;;;;;;;5.82;1.70;;;21.00;99.90;;;;;;5006854;28;20456;-72
2023/09/21 14:20:21;;;;;;;3.45;2.00;;;20.90;99.90;;;;;;5018004;28;20053;-77
2023/09/21 14:23:07;;;;;;;5.93;2.17;;;20.90;99.90;;;;;;5016011;28;20098;-77
2023/09/21 14:25:53;;;;;;;7.57;2.65;;;20.90;99.90;;;;;;5037974;28;20073;-78
2023/09/21 14:28:39;;;;;;;3.72;2.10;;;20.90;99.90;;;;;;4998022;28;20041;-77
2023/09/21 14:31:25;;;;;;;3.15;1.67;;;20.80;99.90;;;;;;5020689;28;20508;-75